Time;durP1;ratioP1;P1;durP2;ratioP2;P2;SDS_P1;SDS_P2;PMS_P1;PMS_P2;Temp;Humidity;BMP_temperature;BMP_pressure;BME280_temperature;BME280_humidity;BME280_pressure;Samples;Min_cycle;Max_cycle;Signal;HPM_P1;HPM_P2
2022/05/11 00:00:38;;;;;;;0.67;0.67;;;;;;;17.52;93.69;100136.81;5020638;28;21179;-79
2022/05/11 00:03:06;;;;;;;0.70;0.70;;;;;;;17.32;93.93;100138.00;5022319;28;20499;-79
2022/05/11 00:05:34;;;;;;;0.73;0.50;;;;;;;17.30;94.35;100129.16;5022747;28;20480;-79
2022/05/11 00:08:03;;;;;;;0.40;0.30;;;;;;;17.07;94.88;100122.44;5020606;28;20515;-79
2022/05/11 00:10:30;;;;;;;0.40;0.30;;;;;;;17.17;95.04;100130.84;5022824;28;20495;-79
2022/05/11 00:12:57;;;;;;;0.50;0.50;;;;;;;17.05;95.29;100124.34;5017907;28;20512;-79
2022/05/11 00:15:25;;;;;;;0.90;0.77;;;;;;;16.87;95.96;100120.06;5034830;28;20455;-79
2022/05/11 00:17:52;;;;;;;0.87;0.87;;;;;;;16.89;96.07;100115.47;5017815;28;21063;-79
2022/05/11 00:20:20;;;;;;;0.40;0.20;;;;;;;16.88;96.04;100114.59;5018074;28;20477;-79
2022/05/11 00:22:46;;;;;;;0.47;0.33;;;;;;;16.84;95.88;100110.34;5034670;28;20464;-79
2022/05/11 00:25:15;;;;;;;0.43;0.27;;;;;;;16.71;96.19;100103.06;5034886;28;20848;-79
2022/05/11 00:27:41;;;;;;;0.40;0.20;;;;;;;16.68;96.59;100105.94;5034180;28;20949;-79
2022/05/11 00:30:09;;;;;;;0.40;0.30;;;;;;;16.84;95.92;100104.09;5035297;28;20535;-79
2022/05/11 00:32:36;;;;;;;0.40;0.20;;;;;;;16.73;95.92;100101.19;5034634;28;20522;-79
2022/05/11 00:35:03;;;;;;;0.50;0.40;;;;;;;16.74;96.60;100102.91;5019149;28;20461;-79
2022/05/11 00:37:31;;;;;;;0.40;0.20;;;;;;;16.56;96.38;100112.81;5019394;28;20938;-79
2022/05/11 00:39:58;;;;;;;1.87;0.60;;;;;;;16.59;96.43;100110.00;5020007;28;20473;-79
2022/05/11 00:42:25;;;;;;;0.87;0.87;;;;;;;16.57;96.72;100109.19;5018905;28;20527;-79
2022/05/11 00:44:54;;;;;;;0.40;0.20;;;;;;;16.33;96.51;100106.06;5017870;28;20445;-79
2022/05/11 00:47:23;;;;;;;0.40;0.30;;;;;;;16.43;97.03;100109.09;5018843;28;20453;-79
2022/05/11 00:49:57;;;;;;;0.40;0.20;;;;;;;16.31;97.60;100097.25;5015995;28;20475;-79
2022/05/11 00:52:48;;;;;;;1.10;1.00;;;;;;;16.31;96.57;100102.59;5017148;28;20797;-79
2022/05/11 00:55:21;;;;;;;0.50;0.40;;;;;;;15.99;97.84;100107.88;5005993;28;20514;-79
2022/05/11 00:57:55;;;;;;;0.50;0.50;;;;;;;15.83;98.98;100101.63;5031676;28;20937;-78
2022/05/11 01:00:24;;;;;;;0.50;0.30;;;;;;;15.75;98.81;100105.66;5016912;28;20467;-78
2022/05/11 01:03:16;;;;;;;0.40;0.20;;;;;;;15.64;98.77;100101.75;5016232;28;20461;-79
2022/05/11 01:05:44;;;;;;;0.50;0.47;;;;;;;15.66;98.68;100096.28;5024983;28;20958;-78
2022/05/11 01:08:13;;;;;;;0.40;0.20;;;;;;;15.71;97.59;100096.91;5016529;28;20468;-79
2022/05/11 01:10:41;;;;;;;0.40;0.20;;;;;;;15.58;98.65;100099.34;5032044;28;20847;-79
2022/05/11 01:13:09;;;;;;;0.60;0.60;;;;;;;15.66;97.96;100093.63;5027793;28;21020;-78
2022/05/11 01:15:37;;;;;;;0.53;0.53;;;;;;;15.43;97.98;100097.44;5015713;28;20943;-78
2022/05/11 01:18:07;;;;;;;0.43;0.30;;;;;;;15.25;98.21;100099.28;5014839;28;20559;-79
2022/05/11 01:20:36;;;;;;;0.47;0.30;;;;;;;15.34;98.96;100087.19;5014140;28;20457;-79
2022/05/11 01:23:22;;;;;;;0.50;0.40;;;;;;;15.35;98.04;100100.53;5016436;28;20453;-79
2022/05/11 01:25:49;;;;;;;0.40;0.30;;;;;;;15.14;97.97;100090.91;5008519;28;20962;-78
2022/05/11 01:28:18;;;;;;;0.70;0.70;;;;;;;15.24;99.17;100094.00;5015987;28;20918;-79
2022/05/11 01:30:51;;;;;;;0.40;0.20;;;;;;;15.08;98.56;100089.41;5014811;28;20484;-78
2022/05/11 01:33:22;;;;;;;0.40;0.20;;;;;;;15.04;100.00;100093.16;5014650;28;20463;-79
2022/05/11 01:36:19;;;;;;;0.40;0.30;;;;;;;14.91;98.97;100092.03;5015983;28;20448;-78
2022/05/11 01:38:50;;;;;;;0.40;0.20;;;;;;;14.98;99.74;100090.81;5014177;28;20492;-78
2022/05/11 01:41:26;;;;;;;0.40;0.20;;;;;;;14.99;99.64;100089.88;5014329;28;20461;-78
2022/05/11 01:43:54;;;;;;;0.40;0.20;;;;;;;14.88;99.51;100081.50;5014601;28;20448;-79
2022/05/11 01:46:21;;;;;;;0.50;0.50;;;;;;;14.86;100.00;100072.69;5030302;28;20460;-78
2022/05/11 01:48:48;;;;;;;0.40;0.27;;;;;;;14.96;100.00;100081.13;5030738;28;20453;-79
2022/05/11 01:51:17;;;;;;;0.43;0.37;;;;;;;14.89;99.65;100080.56;5015936;28;20542;-79
2022/05/11 01:53:45;;;;;;;0.50;0.33;;;;;;;14.95;98.87;100064.22;5013731;28;20456;-78
2022/05/11 01:56:20;;;;;;;0.40;0.40;;;;;;;14.81;98.44;100085.44;5030638;28;20440;-78
2022/05/11 01:58:48;;;;;;;0.40;0.20;;;;;;;14.66;100.00;100081.69;5015135;28;20488;-79
2022/05/11 02:01:19;;;;;;;0.40;0.20;;;;;;;14.84;100.00;100076.38;5015732;28;20480;-78
2022/05/11 02:03:46;;;;;;;0.40;0.20;;;;;;;14.87;100.00;100076.22;5013788;28;20527;-78
2022/05/11 02:09:01;;;;;;;0.40;0.27;;;;;;;14.77;100.00;100083.84;5011327;28;20487;-79
2022/05/11 02:11:27;;;;;;;0.40;0.30;;;;;;;14.65;100.00;100087.09;5021165;28;20495;-79
2022/05/11 02:13:56;;;;;;;0.40;0.30;;;;;;;14.64;100.00;100088.03;5013980;28;20444;-78
2022/05/11 02:16:24;;;;;;;0.40;0.20;;;;;;;14.46;100.00;100082.66;5015647;28;20475;-79
2022/05/11 02:18:51;;;;;;;0.40;0.30;;;;;;;14.42;100.00;100089.06;5013381;28;20508;-79
2022/05/11 02:21:18;;;;;;;0.40;0.30;;;;;;;14.55;100.00;100077.81;5013524;28;21026;-79
2022/05/11 02:23:47;;;;;;;0.40;0.20;;;;;;;14.47;100.00;100091.53;5014150;28;20871;-79
2022/05/11 02:26:13;;;;;;;0.40;0.20;;;;;;;14.24;100.00;100089.91;5012775;28;20531;-79
2022/05/11 02:28:40;;;;;;;0.40;0.30;;;;;;;14.32;100.00;100090.44;5014116;28;20456;-78
2022/05/11 02:31:06;;;;;;;0.40;0.20;;;;;;;14.30;100.00;100086.97;5016134;28;20476;-79
2022/05/11 02:33:33;;;;;;;0.40;0.20;;;;;;;14.26;100.00;100079.19;5018510;28;20962;-79
2022/05/11 02:36:00;;;;;;;0.60;0.60;;;;;;;13.99;100.00;100076.84;5018251;28;20879;-79
2022/05/11 02:38:33;;;;;;;2.00;1.50;;;;;;;14.08;100.00;100073.72;5033293;28;20558;-78
2022/05/11 02:41:01;;;;;;;0.60;0.60;;;;;;;14.21;100.00;100072.22;5015429;28;20506;-78
2022/05/11 02:43:28;;;;;;;0.50;0.43;;;;;;;14.21;100.00;100074.03;5016388;28;20448;-78
2022/05/11 02:45:55;;;;;;;0.40;0.20;;;;;;;14.34;100.00;100075.19;5015131;28;20853;-78
2022/05/11 02:48:24;;;;;;;0.57;0.57;;;;;;;14.23;100.00;100064.13;5015093;28;20476;-78
2022/05/11 02:50:54;;;;;;;0.97;0.67;;;;;;;14.07;100.00;100060.44;5015194;28;20880;-78
2022/05/11 02:53:22;;;;;;;0.50;0.40;;;;;;;14.13;100.00;100071.72;5016413;28;20897;-78
2022/05/11 02:55:51;;;;;;;0.40;0.20;;;;;;;14.11;100.00;100073.56;5003426;28;20444;-78
2022/05/11 02:58:20;;;;;;;1.33;1.23;;;;;;;14.02;100.00;100071.34;5014704;28;20567;-78
2022/05/11 03:00:49;;;;;;;1.33;1.23;;;;;;;14.00;100.00;100065.22;5014489;28;20472;-78
2022/05/11 03:03:17;;;;;;;1.07;1.07;;;;;;;14.10;100.00;100066.50;5015873;28;20484;-78
2022/05/11 03:05:44;;;;;;;0.37;0.20;;;;;;;14.18;100.00;100074.16;5014342;28;20953;-78
2022/05/11 03:08:13;;;;;;;0.40;0.30;;;;;;;14.19;100.00;100067.88;5014618;28;20875;-78
2022/05/11 03:10:40;;;;;;;1.17;1.17;;;;;;;13.87;100.00;100066.72;5014621;28;20468;-78
2022/05/11 03:13:07;;;;;;;0.40;0.40;;;;;;;13.79;100.00;100068.84;5012957;28;20456;-78
2022/05/11 03:15:35;;;;;;;3.90;1.13;;;;;;;13.79;100.00;100064.38;5014581;28;20445;-78
2022/05/11 03:18:02;;;;;;;0.50;0.50;;;;;;;13.82;100.00;100063.38;5014060;28;21138;-78
2022/05/11 03:20:29;;;;;;;0.40;0.20;;;;;;;13.83;100.00;100068.63;5014440;28;20508;-78
2022/05/11 03:22:56;;;;;;;0.40;0.30;;;;;;;13.88;100.00;100061.28;5030840;28;20522;-78
2022/05/11 03:25:25;;;;;;;0.50;0.50;;;;;;;13.75;100.00;100061.94;5014232;28;20510;-78
2022/05/11 03:27:53;;;;;;;0.40;0.20;;;;;;;13.72;100.00;100060.25;5030211;28;20448;-78
2022/05/11 03:30:20;;;;;;;0.80;0.80;;;;;;;13.87;100.00;100051.53;5030554;28;20840;-77
2022/05/11 03:35:32;;;;;;;0.97;0.97;;;;;;;13.81;100.00;100066.97;5015702;28;20449;-78
2022/05/11 03:37:59;;;;;;;0.40;0.30;;;;;;;13.77;100.00;100052.03;5014005;28;20488;-78
2022/05/11 03:40:26;;;;;;;1.00;1.00;;;;;;;13.64;100.00;100044.56;5015469;28;20523;-78
2022/05/11 03:42:52;;;;;;;0.40;0.30;;;;;;;13.76;100.00;100051.16;5014054;28;20445;-78
2022/05/11 03:45:22;;;;;;;0.70;0.70;;;;;;;13.77;100.00;100046.69;5013766;28;20452;-78
2022/05/11 03:47:50;;;;;;;0.40;0.40;;;;;;;13.83;100.00;100049.94;5014771;28;20858;-77
2022/05/11 03:50:20;;;;;;;2.33;1.57;;;;;;;14.01;100.00;100047.38;5013484;28;20476;-77
2022/05/11 03:52:48;;;;;;;0.40;0.20;;;;;;;13.86;100.00;100040.94;5000858;28;20452;-77
2022/05/11 03:55:15;;;;;;;0.63;0.63;;;;;;;13.74;100.00;100042.34;5013703;28;20516;-77
2022/05/11 03:57:42;;;;;;;0.40;0.30;;;;;;;13.75;100.00;100048.56;5029837;28;20484;-77
2022/05/11 04:00:14;;;;;;;0.30;0.20;;;;;;;13.67;100.00;100040.88;5029595;28;20480;-78
2022/05/11 04:02:42;;;;;;;0.30;0.20;;;;;;;13.79;100.00;100047.47;5014578;28;20445;-78
2022/05/11 04:05:11;;;;;;;0.40;0.40;;;;;;;13.75;100.00;100056.59;5014218;28;20488;-77
2022/05/11 04:07:38;;;;;;;0.37;0.20;;;;;;;13.76;100.00;100045.81;5013480;28;20449;-77
2022/05/11 04:10:05;;;;;;;0.40;0.20;;;;;;;13.74;100.00;100039.69;5029742;28;20544;-77
2022/05/11 04:12:33;;;;;;;0.37;0.20;;;;;;;13.79;100.00;100044.81;5013146;28;20460;-78
2022/05/11 04:14:59;;;;;;;0.50;0.50;;;;;;;13.90;100.00;100040.72;5029800;28;20457;-77
2022/05/11 04:17:27;;;;;;;0.50;0.50;;;;;;;13.98;100.00;100040.38;5029101;28;20515;-77
2022/05/11 04:19:53;;;;;;;0.30;0.20;;;;;;;14.01;100.00;100039.34;5014176;28;20622;-77
2022/05/11 04:22:20;;;;;;;0.40;0.30;;;;;;;14.15;100.00;100043.13;5012928;28;20461;-77
2022/05/11 04:24:47;;;;;;;0.30;0.20;;;;;;;14.01;100.00;100024.19;5013831;28;20938;-77
2022/05/11 04:27:13;;;;;;;0.30;0.20;;;;;;;14.13;100.00;100045.00;5029248;28;20441;-77
2022/05/11 04:29:41;;;;;;;0.40;0.40;;;;;;;14.54;100.00;100038.63;5013584;28;20460;-77
2022/05/11 04:32:08;;;;;;;0.40;0.20;;;;;;;14.18;100.00;100037.63;5012703;28;20460;-77
2022/05/11 04:34:37;;;;;;;0.40;0.30;;;;;;;14.30;100.00;100041.50;5028691;28;20452;-78
2022/05/11 04:37:04;;;;;;;0.30;0.20;;;;;;;14.41;100.00;100038.34;5013876;28;20456;-77
2022/05/11 04:39:31;;;;;;;1.07;0.73;;;;;;;14.28;100.00;100035.38;5012510;28;20492;-77
2022/05/11 04:41:57;;;;;;;0.77;0.77;;;;;;;14.23;100.00;100034.72;5029054;28;20495;-77
2022/05/11 04:44:24;;;;;;;0.40;0.20;;;;;;;14.48;100.00;100037.97;5012515;28;20475;-77
2022/05/11 04:46:55;;;;;;;1.90;1.90;;;;;;;14.81;100.00;100039.94;5013481;28;20827;-77
2022/05/11 04:49:25;;;;;;;0.63;0.63;;;;;;;15.00;100.00;100046.09;5013627;28;20445;-77
2022/05/11 04:52:00;;;;;;;0.40;0.20;;;;;;;15.56;100.00;100031.56;5028662;28;20468;-78
2022/05/11 04:54:27;;;;;;;0.40;0.30;;;;;;;16.00;98.71;100039.91;5011974;28;20825;-77
2022/05/11 04:56:54;;;;;;;0.50;0.50;;;;;;;16.24;97.73;100032.31;5013039;28;20444;-77
2022/05/11 04:59:22;;;;;;;0.67;0.47;;;;;;;16.89;95.34;100042.97;5013057;28;20504;-77
2022/05/11 05:01:48;;;;;;;0.40;0.30;;;;;;;17.30;93.15;100043.19;5011826;28;20477;-77
2022/05/11 05:04:15;;;;;;;0.50;0.30;;;;;;;17.77;91.86;100045.69;5013328;28;20495;-77
2022/05/11 05:06:42;;;;;;;0.60;0.60;;;;;;;18.11;89.06;100040.88;5015164;28;20455;-77
2022/05/11 05:09:09;;;;;;;0.40;0.30;;;;;;;18.39;88.67;100039.97;5013346;28;20926;-77
2022/05/11 05:11:35;;;;;;;0.40;0.20;;;;;;;18.49;88.06;100037.53;5024892;28;20938;-77
2022/05/11 05:14:05;;;;;;;0.70;0.70;;;;;;;18.92;86.66;100044.56;5028031;28;20453;-77
2022/05/11 05:16:33;;;;;;;0.57;0.50;;;;;;;19.28;85.51;100042.13;5010553;28;20484;-77
2022/05/11 05:19:00;;;;;;;5.57;1.10;;;;;;;19.95;84.26;100032.06;5012701;28;20492;-77
2022/05/11 05:21:27;;;;;;;0.53;0.40;;;;;;;20.37;82.44;100052.38;5012244;28;20504;-77
2022/05/11 05:23:53;;;;;;;1.33;1.23;;;;;;;20.56;83.28;100042.00;5028407;28;20563;-77
2022/05/11 05:26:20;;;;;;;0.60;0.60;;;;;;;20.75;81.07;100046.91;5013256;28;20488;-77
2022/05/11 05:31:32;;;;;;;0.40;0.30;;;;;;;21.28;79.85;100047.41;5000938;28;20476;-77
2022/05/11 05:34:02;;;;;;;0.53;0.50;;;;;;;21.90;77.28;100047.03;5013092;28;20464;-77
2022/05/11 05:36:37;;;;;;;1.60;1.50;;;;;;;21.29;78.78;100052.69;5028351;28;20441;-77
2022/05/11 05:39:05;;;;;;;0.90;0.90;;;;;;;21.32;78.88;100046.19;5011942;28;21156;-77
2022/05/11 05:41:32;;;;;;;0.40;0.20;;;;;;;21.65;76.80;100047.25;5028327;28;20477;-78
2022/05/11 05:43:59;;;;;;;0.40;0.30;;;;;;;22.03;75.23;100052.34;5028115;28;21002;-78
2022/05/11 05:46:25;;;;;;;0.50;0.30;;;;;;;21.57;77.44;100051.44;5028278;28;20453;-78
2022/05/11 05:48:52;;;;;;;0.50;0.40;;;;;;;21.85;76.35;100055.53;5011739;28;20515;-78
2022/05/11 05:51:20;;;;;;;1.53;1.53;;;;;;;21.98;75.14;100052.72;5012985;28;20542;-78
2022/05/11 05:53:47;;;;;;;0.40;0.30;;;;;;;21.73;76.91;100052.94;5011571;28;20480;-77
2022/05/11 05:56:14;;;;;;;0.60;0.50;;;;;;;21.60;76.54;100055.72;5012221;28;20848;-77
2022/05/11 05:58:44;;;;;;;0.47;0.40;;;;;;;21.63;76.69;100058.19;5028020;28;20497;-77
2022/05/11 06:01:12;;;;;;;0.50;0.30;;;;;;;22.12;75.08;100054.34;5011722;28;20472;-77
2022/05/11 06:03:40;;;;;;;1.93;1.13;;;;;;;21.91;75.13;100056.88;5011781;28;20867;-77
2022/05/11 06:06:08;;;;;;;0.40;0.30;;;;;;;21.98;74.75;100055.41;5012809;28;20452;-77
2022/05/11 06:08:36;;;;;;;1.33;0.80;;;;;;;21.90;74.72;100047.03;5015834;28;20506;-77
2022/05/11 06:11:05;;;;;;;3.13;0.87;;;;;;;21.66;75.52;100057.13;5022809;28;20481;-77
2022/05/11 06:13:32;;;;;;;0.90;0.50;;;;;;;22.09;74.34;100041.06;5014133;28;20456;-77
2022/05/11 06:15:59;;;;;;;0.50;0.30;;;;;;;22.12;74.76;100041.66;5016794;28;20452;-77
2022/05/11 06:18:26;;;;;;;0.67;0.67;;;;;;;22.16;73.42;100045.84;5015629;28;20534;-77
2022/05/11 06:20:54;;;;;;;0.40;0.30;;;;;;;22.22;74.11;100047.22;5015349;28;20471;-77
2022/05/11 06:23:21;;;;;;;0.50;0.50;;;;;;;22.37;74.01;100045.97;5031436;28;20654;-77
2022/05/11 06:25:51;;;;;;;0.40;0.20;;;;;;;22.53;73.37;100048.28;5015428;28;20957;-77
2022/05/11 06:28:19;;;;;;;0.70;0.50;;;;;;;22.26;73.40;100048.69;5016098;28;20475;-77
2022/05/11 06:31:07;;;;;;;0.40;0.30;;;;;;;22.20;73.65;100049.16;5015890;28;20927;-77
2022/05/11 06:33:40;;;;;;;0.50;0.50;;;;;;;22.36;73.01;100048.81;5031176;28;20459;-77
2022/05/11 06:36:08;;;;;;;0.50;0.47;;;;;;;22.27;73.14;100049.53;5016905;28;20511;-77
2022/05/11 06:38:36;;;;;;;0.40;0.30;;;;;;;22.20;73.74;100038.31;5015352;28;20495;-77
2022/05/11 06:41:15;;;;;;;0.50;0.40;;;;;;;22.14;74.30;100034.28;5015166;28;20510;-77
2022/05/11 06:43:44;;;;;;;0.50;0.33;;;;;;;22.49;72.50;100043.25;5015083;28;20441;-77
2022/05/11 06:46:12;;;;;;;0.50;0.30;;;;;;;22.39;74.24;100032.28;5016403;28;20460;-77
2022/05/11 06:48:39;;;;;;;0.50;0.30;;;;;;;22.51;72.19;100036.72;5015236;28;20494;-77
2022/05/11 06:51:05;;;;;;;0.40;0.30;;;;;;;22.04;75.03;100038.66;5016100;28;20476;-77
2022/05/11 06:59:20;;;;;;;1.80;1.23;;;;;;;22.32;74.61;100040.03;5015007;28;20532;-77
2022/05/11 06:59:25;;;;;;;0.40;0.20;;;;;;;22.23;74.72;100029.97;5015793;28;20542;-77
2022/05/11 07:01:52;;;;;;;0.90;0.90;;;;;;;22.10;74.10;100035.53;5015775;28;20473;-77
2022/05/11 07:04:23;;;;;;;1.83;0.93;;;;;;;22.27;74.10;100034.16;5014569;28;20456;-77
2022/05/11 07:06:52;;;;;;;0.40;0.20;;;;;;;22.51;74.58;100031.28;5015112;28;20484;-77
2022/05/11 07:09:24;;;;;;;0.60;0.60;;;;;;;22.28;73.98;100026.88;5031347;28;20527;-77
2022/05/11 07:14:37;;;;;;;0.40;0.30;;;;;;;22.40;74.16;100023.19;5015939;28;20452;-77
2022/05/11 07:17:04;;;;;;;4.93;1.80;;;;;;;22.42;74.77;100019.34;5030514;28;20464;-77
2022/05/11 07:19:33;;;;;;;0.50;0.30;;;;;;;22.47;74.56;100017.13;5029765;28;20492;-77
2022/05/11 07:22:01;;;;;;;0.70;0.60;;;;;;;22.77;73.69;100016.44;5015664;28;20455;-77
2022/05/11 07:24:27;;;;;;;0.40;0.20;;;;;;;22.73;73.92;100011.38;5015409;28;20460;-77
2022/05/11 07:26:54;;;;;;;5.43;1.23;;;;;;;23.01;73.01;100018.09;5030570;28;20992;-77
2022/05/11 07:29:22;;;;;;;1.07;0.97;;;;;;;22.86;73.68;100016.69;5014872;28;20449;-77
2022/05/11 07:31:50;;;;;;;0.60;0.60;;;;;;;23.13;72.97;100016.19;5030213;28;20492;-77
2022/05/11 07:34:17;;;;;;;0.47;0.30;;;;;;;23.60;71.30;100021.16;5030793;28;20456;-77
2022/05/11 07:36:44;;;;;;;0.60;0.60;;;;;;;23.88;69.54;100005.16;5014620;28;20457;-77
2022/05/11 07:39:10;;;;;;;1.17;0.60;;;;;;;23.87;66.16;100011.56;5030623;28;21013;-77
2022/05/11 07:41:37;;;;;;;0.97;0.87;;;;;;;23.86;66.56;100007.16;5030945;28;20833;-77
2022/05/11 07:44:04;;;;;;;0.77;0.77;;;;;;;24.15;65.53;100016.28;5014215;28;20456;-77
2022/05/11 07:46:34;;;;;;;0.80;0.80;;;;;;;24.47;64.71;100002.50;5015638;28;20453;-78
2022/05/11 07:49:03;;;;;;;0.50;0.43;;;;;;;24.76;63.08;100015.28;5030575;28;20451;-77
2022/05/11 07:51:31;;;;;;;0.50;0.50;;;;;;;24.41;63.02;100011.25;5016119;28;20479;-77
2022/05/11 07:53:58;;;;;;;3.37;1.97;;;;;;;24.70;62.38;100007.72;5015851;28;20448;-77
2022/05/11 08:01:55;;;;;;;0.47;0.30;;;;;;;25.41;61.62;100005.59;5015599;28;20473;-78
2022/05/11 08:04:22;;;;;;;2.23;0.63;;;;;;;24.99;60.06;100005.03;5014394;28;20464;-77
2022/05/11 08:06:48;;;;;;;0.67;0.67;;;;;;;25.36;60.63;100002.47;5026919;28;20433;-78
2022/05/11 08:09:16;;;;;;;1.27;0.90;;;;;;;25.19;60.87;99995.00;5015197;28;20511;-78
2022/05/11 08:11:42;;;;;;;0.40;0.23;;;;;;;25.40;59.74;99990.25;5031449;28;20481;-77
2022/05/11 08:14:09;;;;;;;0.40;0.30;;;;;;;25.64;58.88;99992.50;5014892;28;20460;-77
2022/05/11 08:16:35;;;;;;;0.40;0.30;;;;;;;25.93;58.39;99987.84;5029827;28;20523;-77
2022/05/11 08:19:02;;;;;;;0.83;0.57;;;;;;;25.74;57.46;99984.31;5014041;28;20534;-77
2022/05/11 08:21:29;;;;;;;0.43;0.27;;;;;;;25.66;57.07;99987.78;5030318;28;20472;-77
2022/05/11 08:23:55;;;;;;;0.50;0.40;;;;;;;25.89;58.12;99993.72;5013968;28;20456;-78
2022/05/11 08:26:22;;;;;;;0.87;0.87;;;;;;;25.87;57.33;99987.56;5015268;28;20460;-78
2022/05/11 08:28:49;;;;;;;0.50;0.40;;;;;;;26.35;56.08;99995.53;5013762;28;20966;-78
2022/05/11 08:34:01;;;;;;;0.90;0.70;;;;;;;26.59;55.05;99981.38;5014855;28;20448;-78
2022/05/11 08:36:36;;;;;;;0.60;0.60;;;;;;;26.32;55.35;99973.19;5003510;28;20805;-78
2022/05/11 08:39:04;;;;;;;0.57;0.50;;;;;;;26.47;55.19;99986.16;5031118;28;20538;-77
2022/05/11 08:41:50;;;;;;;0.60;0.40;;;;;;;26.34;55.95;99982.06;5015075;28;20480;-78
2022/05/11 08:44:21;;;;;;;0.40;0.30;;;;;;;26.50;55.45;99985.00;5013517;28;20506;-76
2022/05/11 08:47:10;;;;;;;0.40;0.30;;;;;;;26.86;53.72;99984.03;5013065;28;20522;-77
2022/05/11 08:49:52;;;;;;;0.50;0.50;;;;;;;26.46;55.30;99983.59;5012941;28;20456;-77
2022/05/11 08:52:50;;;;;;;0.50;0.30;;;;;;;26.72;55.38;99986.41;5028374;28;20942;-77
2022/05/11 08:55:32;;;;;;;1.07;1.07;;;;;;;26.69;55.72;99984.84;5028914;28;20440;-77
2022/05/11 08:58:06;;;;;;;0.40;0.30;;;;;;;27.19;53.75;99980.75;5013894;28;20470;-77
2022/05/11 09:00:35;;;;;;;2.20;1.77;;;;;;;27.07;53.66;99975.53;5028547;28;20500;-77
2022/05/11 09:03:14;;;;;;;0.57;0.40;;;;;;;27.05;54.82;99976.72;5013504;28;20451;-77
2022/05/11 09:05:41;;;;;;;0.50;0.30;;;;;;;26.79;55.15;99977.47;5001248;28;20808;-77
2022/05/11 09:08:10;;;;;;;0.40;0.30;;;;;;;27.03;54.71;99974.16;5013380;28;20514;-77
2022/05/11 09:10:38;;;;;;;0.50;0.40;;;;;;;27.05;53.47;99972.13;5013268;28;20464;-77
2022/05/11 09:13:10;;;;;;;0.50;0.30;;;;;;;27.27;52.37;99968.00;5009978;28;20534;-77
2022/05/11 09:15:56;;;;;;;0.70;0.70;;;;;;;27.56;51.94;99965.00;5013094;28;20919;-77
2022/05/11 09:18:36;;;;;;;0.50;0.40;;;;;;;26.99;53.70;99966.38;5013784;28;20957;-77
2022/05/11 09:21:24;;;;;;;0.40;0.30;;;;;;;27.43;52.56;99959.09;5011728;28;20989;-77
2022/05/11 09:24:18;;;;;;;1.20;0.83;;;;;;;27.49;52.22;99954.88;5013059;28;20812;-77
2022/05/11 09:26:58;;;;;;;0.50;0.37;;;;;;;27.84;51.08;99949.31;5016360;28;20494;-77
2022/05/11 09:29:34;;;;;;;0.50;0.30;;;;;;;27.83;50.94;99946.75;5013643;28;20516;-77
2022/05/11 09:32:29;;;;;;;0.70;0.70;;;;;;;28.11;52.25;99950.13;5031653;28;20434;-77
2022/05/11 09:35:16;;;;;;;0.67;0.60;;;;;;;27.98;50.51;99943.22;5013920;28;20442;-76
2022/05/11 09:37:45;;;;;;;3.23;1.70;;;;;;;27.63;49.88;99941.47;5013995;28;20821;-77
2022/05/11 09:40:20;;;;;;;0.50;0.43;;;;;;;28.12;48.69;99935.44;5012569;28;21035;-77
2022/05/11 09:42:56;;;;;;;3.40;2.47;;;;;;;28.61;48.32;99936.44;5011382;28;20562;-76
2022/05/11 09:45:47;;;;;;;1.07;0.83;;;;;;;28.40;48.68;99936.91;5011821;28;20469;-77
2022/05/11 09:48:19;;;;;;;0.50;0.30;;;;;;;28.70;48.35;99942.78;5027886;28;20427;-77
2022/05/11 09:50:55;;;;;;;0.60;0.60;;;;;;;28.67;46.35;99940.38;5012719;28;20476;-77
2022/05/11 09:53:30;;;;;;;0.40;0.23;;;;;;;28.95;46.15;99935.47;5027890;28;20440;-77
2022/05/11 09:56:27;;;;;;;1.20;1.10;;;;;;;29.03;46.92;99938.19;5012722;28;20474;-77
2022/05/11 09:58:54;;;;;;;0.40;0.30;;;;;;;29.17;46.22;99932.88;5028081;28;20494;-77
2022/05/11 10:01:26;;;;;;;0.50;0.40;;;;;;;29.29;45.17;99932.53;5011419;28;20439;-77
2022/05/11 10:04:03;;;;;;;0.77;0.77;;;;;;;28.79;45.34;99941.78;5028168;28;20435;-77
2022/05/11 10:06:53;;;;;;;0.50;0.37;;;;;;;28.87;44.36;99936.31;5012010;28;20510;-77
2022/05/11 10:09:26;;;;;;;0.60;0.50;;;;;;;28.57;45.46;99924.13;5012741;28;20411;-77
2022/05/11 10:11:53;;;;;;;0.50;0.30;;;;;;;28.65;45.06;99912.34;5011113;28;20459;-77
2022/05/11 10:23:11;;;;;;;0.43;0.30;;;;;;;28.88;43.85;99907.91;5012345;28;20447;-77
2022/05/11 10:25:41;;;;;;;11.83;1.03;;;;;;;28.98;43.19;99888.59;5012375;28;20424;-77
2022/05/11 10:28:28;;;;;;;0.50;0.30;;;;;;;29.21;44.15;99884.13;5027720;28;20464;-77
2022/05/11 10:31:17;;;;;;;0.47;0.30;;;;;;;29.29;44.76;99884.09;5027567;28;20451;-77
2022/05/11 10:34:21;;;;;;;0.50;0.40;;;;;;;28.92;43.67;99879.22;5012345;28;20478;-77
2022/05/11 10:37:02;;;;;;;0.50;0.50;;;;;;;29.44;43.15;99887.81;5017358;28;20868;-77
2022/05/11 10:39:51;;;;;;;0.40;0.30;;;;;;;29.28;43.44;99878.81;5011098;28;20512;-77
2022/05/11 10:42:34;;;;;;;0.60;0.50;;;;;;;29.37;42.29;99875.88;5027087;28;20419;-77
2022/05/11 10:45:20;;;;;;;0.50;0.50;;;;;;;29.61;41.47;99875.00;5012172;28;20434;-77
2022/05/11 10:48:03;;;;;;;0.50;0.40;;;;;;;29.41;41.63;99866.28;5012381;28;20451;-77
2022/05/11 10:50:52;;;;;;;0.50;0.40;;;;;;;29.28;43.44;99865.09;5010887;28;20518;-77
2022/05/11 10:53:37;;;;;;;0.40;0.30;;;;;;;29.39;42.99;99867.47;5014878;28;20490;-77
2022/05/11 10:56:16;;;;;;;0.50;0.30;;;;;;;29.57;41.78;99851.69;5019288;28;20445;-77
2022/05/11 10:59:01;;;;;;;0.50;0.30;;;;;;;29.59;42.68;99846.03;5030538;28;20959;-77
2022/05/11 11:01:52;;;;;;;0.60;0.60;;;;;;;29.64;41.83;99854.59;5030768;28;20517;-77
2022/05/11 11:04:31;;;;;;;0.50;0.40;;;;;;;29.73;41.83;99853.50;5003972;28;20435;-77
2022/05/11 11:07:16;;;;;;;0.50;0.30;;;;;;;29.73;42.58;99848.03;5002682;28;20510;-77
2022/05/11 11:10:12;;;;;;;0.83;0.83;;;;;;;29.84;42.86;99844.03;5030668;28;20825;-77
2022/05/11 11:13:16;;;;;;;0.67;0.67;;;;;;;30.17;42.02;99845.63;5014497;28;20538;-77
2022/05/11 11:15:44;;;;;;;1.03;0.60;;;;;;;30.22;41.91;99842.31;5005871;28;20459;-77
2022/05/11 11:18:15;;;;;;;1.07;1.07;;;;;;;30.22;42.14;99847.81;5030610;28;20511;-77
2022/05/11 11:20:47;;;;;;;0.80;0.80;;;;;;;29.95;40.85;99830.81;5030254;28;20497;-77
2022/05/11 11:23:17;;;;;;;0.47;0.30;;;;;;;29.93;40.87;99848.47;5030648;28;20456;-77
2022/05/11 11:25:58;;;;;;;0.50;0.33;;;;;;;29.78;40.92;99829.19;5015131;28;20431;-77
2022/05/11 11:28:31;;;;;;;0.50;0.30;;;;;;;29.61;41.23;99822.94;5018073;28;20490;-77
2022/05/11 11:30:57;;;;;;;0.40;0.30;;;;;;;29.70;41.83;99821.84;5013775;28;20465;-77
2022/05/11 11:33:33;;;;;;;0.43;0.30;;;;;;;29.63;39.02;99812.66;5014943;28;20428;-77
2022/05/11 11:36:05;;;;;;;0.50;0.30;;;;;;;29.70;40.42;99815.50;5030335;28;20535;-77
2022/05/11 11:38:41;;;;;;;0.40;0.30;;;;;;;29.85;40.67;99812.88;5030221;28;20571;-77
2022/05/11 11:41:11;;;;;;;0.50;0.50;;;;;;;29.91;40.22;99814.91;5029907;28;20478;-77
2022/05/11 11:43:43;;;;;;;7.83;2.10;;;;;;;29.73;39.20;99818.75;5029800;28;20503;-77
2022/05/11 11:46:27;;;;;;;0.40;0.30;;;;;;;29.75;39.79;99822.19;5014655;28;20430;-77
2022/05/11 11:49:27;;;;;;;7.63;1.10;;;;;;;29.75;39.82;99813.97;5013372;28;20472;-77
2022/05/11 11:52:01;;;;;;;0.60;0.50;;;;;;;29.84;39.34;99814.75;4999851;28;20447;-77
2022/05/11 11:54:39;;;;;;;0.50;0.40;;;;;;;29.84;39.79;99805.69;5002857;28;20458;-77
2022/05/11 11:57:08;;;;;;;1.20;1.10;;;;;;;29.88;38.11;99807.91;5029634;28;20427;-77
2022/05/11 11:59:39;;;;;;;0.50;0.40;;;;;;;29.83;39.16;99810.31;5029688;28;20990;-77
2022/05/11 12:02:29;;;;;;;0.40;0.30;;;;;;;29.95;38.49;99811.59;5013365;28;20485;-77
2022/05/11 12:05:05;;;;;;;2.70;0.60;;;;;;;29.89;38.09;99804.13;5013481;28;20943;-77
2022/05/11 12:15:01;;;;;;;0.63;0.63;;;;;;;29.86;37.63;99790.75;5001507;28;20519;-77
2022/05/11 12:16:54;;;;;;;0.40;0.30;;;;;;;29.98;38.83;99793.94;5014097;28;20448;-77
2022/05/11 12:19:24;;;;;;;0.50;0.30;;;;;;;30.46;37.85;99781.81;5014102;28;20934;-77
2022/05/11 12:22:13;;;;;;;0.87;0.87;;;;;;;30.26;38.99;99786.06;5014084;28;20517;-77
2022/05/11 12:24:47;;;;;;;3.30;1.37;;;;;;;30.40;37.34;99788.00;5029289;28;20506;-77